Time;durP1;ratioP1;P1;durP2;ratioP2;P2;SDS_P1;SDS_P2;PMS_P1;PMS_P2;Temp;Humidity;BMP_temperature;BMP_pressure;BME280_temperature;BME280_humidity;BME280_pressure;Samples;Min_cycle;Max_cycle;Signal;HPM_P1;HPM_P2
2023/08/16 00:00:53;;;;;;;16.65;5.20;;;;;;;18.88;100.00;101734.25;5073769;28;20037;-67
2023/08/16 00:03:19;;;;;;;17.85;5.35;;;;;;;18.78;100.00;101737.03;5073850;28;20111;-66
2023/08/16 00:05:44;;;;;;;17.98;5.55;;;;;;;18.81;100.00;101734.31;5069413;28;20751;-67
2023/08/16 00:08:10;;;;;;;18.02;5.32;;;;;;;18.82;100.00;101732.53;5073657;28;20029;-66
2023/08/16 00:10:35;;;;;;;17.92;5.60;;;;;;;18.84;100.00;101735.19;5073386;28;20059;-67
2023/08/16 00:13:01;;;;;;;17.73;5.50;;;;;;;18.79;100.00;101736.13;5073370;28;20045;-67
2023/08/16 00:15:26;;;;;;;17.65;5.45;;;;;;;18.76;100.00;101741.53;5073814;28;20564;-67
2023/08/16 00:17:53;;;;;;;18.35;5.80;;;;;;;18.70;100.00;101747.00;5073259;28;20024;-67
2023/08/16 00:20:20;;;;;;;17.45;5.97;;;;;;;18.65;100.00;101740.81;5073319;28;20029;-67
2023/08/16 00:22:46;;;;;;;18.08;5.53;;;;;;;18.57;100.00;101740.06;5069476;28;20040;-66
2023/08/16 00:25:11;;;;;;;18.15;5.80;;;;;;;18.51;100.00;101746.38;5073069;28;20028;-67
2023/08/16 00:27:37;;;;;;;18.73;6.05;;;;;;;18.41;100.00;101748.28;5072293;28;20425;-67
2023/08/16 00:30:04;;;;;;;17.48;5.85;;;;;;;18.50;100.00;101743.72;5073223;28;20112;-67
2023/08/16 00:32:29;;;;;;;15.50;5.60;;;;;;;18.42;100.00;101746.50;5073081;28;20036;-66
2023/08/16 00:34:55;;;;;;;17.00;5.50;;;;;;;18.44;100.00;101744.69;5073086;28;20460;-67
2023/08/16 00:37:20;;;;;;;17.55;5.57;;;;;;;18.42;100.00;101742.03;5073063;28;20033;-64
2023/08/16 00:39:46;;;;;;;16.55;5.47;;;;;;;18.39;100.00;101741.19;5072964;28;20532;-64
2023/08/16 00:42:11;;;;;;;17.08;5.65;;;;;;;18.30;100.00;101752.91;5072957;28;20066;-64
2023/08/16 00:44:36;;;;;;;17.15;5.38;;;;;;;18.17;100.00;101752.19;5073048;28;20085;-64
2023/08/16 00:47:02;;;;;;;18.10;5.70;;;;;;;18.03;100.00;101752.38;5072850;28;20527;-64
2023/08/16 00:49:28;;;;;;;17.88;6.00;;;;;;;17.99;100.00;101764.00;5072908;28;20029;-64
2023/08/16 00:51:54;;;;;;;16.88;5.70;;;;;;;17.97;100.00;101767.59;5072439;28;20143;-64
2023/08/16 00:54:20;;;;;;;18.48;5.93;;;;;;;17.94;100.00;101765.88;5072974;28;20107;-64
2023/08/16 00:56:45;;;;;;;17.05;5.47;;;;;;;17.84;100.00;101766.81;5073043;28;20020;-64
2023/08/16 00:59:11;;;;;;;18.52;5.50;;;;;;;17.93;100.00;101772.09;5072728;28;20040;-64
2023/08/16 01:01:36;;;;;;;17.65;5.70;;;;;;;17.81;100.00;101767.75;5072818;28;20028;-64
2023/08/16 01:04:02;;;;;;;17.05;5.43;;;;;;;17.78;100.00;101775.81;5072785;28;20028;-65
2023/08/16 01:06:27;;;;;;;18.42;5.32;;;;;;;17.64;100.00;101767.06;5072623;28;20035;-64
2023/08/16 01:08:53;;;;;;;18.92;5.75;;;;;;;17.62;100.00;101764.41;5072604;28;20494;-64
2023/08/16 01:11:27;;;;;;;16.73;5.70;;;;;;;17.52;100.00;101774.28;5072974;28;20033;-64
2023/08/16 01:14:10;;;;;;;18.25;5.38;;;;;;;17.53;100.00;101776.06;5069487;28;20032;-64
2023/08/16 01:16:39;;;;;;;18.55;5.55;;;;;;;17.62;100.00;101782.19;5072493;28;20029;-64
2023/08/16 01:19:10;;;;;;;18.17;5.78;;;;;;;17.58;100.00;101779.56;5072530;28;20032;-64
2023/08/16 01:21:42;;;;;;;16.38;5.38;;;;;;;17.63;100.00;101782.19;5072653;28;20502;-64
2023/08/16 01:24:22;;;;;;;18.75;5.97;;;;;;;17.63;100.00;101781.31;5072540;28;20112;-64
2023/08/16 01:26:49;;;;;;;18.08;6.18;;;;;;;17.50;100.00;101778.75;5068844;28;20032;-64
2023/08/16 01:29:17;;;;;;;19.10;5.90;;;;;;;17.43;100.00;101788.63;5072613;28;20028;-64
2023/08/16 01:31:44;;;;;;;17.08;6.30;;;;;;;17.45;100.00;101788.59;5072282;28;20024;-64
2023/08/16 01:34:09;;;;;;;19.23;6.88;;;;;;;17.48;100.00;101793.91;5072450;28;20056;-64
2023/08/16 01:36:35;;;;;;;18.30;6.53;;;;;;;17.60;100.00;101795.59;5072256;28;20471;-64
2023/08/16 01:39:00;;;;;;;18.65;6.70;;;;;;;17.67;100.00;101797.31;5072295;28;20035;-64
2023/08/16 01:41:34;;;;;;;19.52;6.90;;;;;;;17.71;100.00;101801.72;5076432;28;20025;-64
2023/08/16 01:44:00;;;;;;;17.83;6.70;;;;;;;17.66;100.00;101795.53;5076198;28;20032;-64
2023/08/16 01:46:27;;;;;;;18.00;6.00;;;;;;;17.54;100.00;101795.66;5076124;28;20365;-64
2023/08/16 01:48:54;;;;;;;18.00;6.07;;;;;;;17.64;100.00;101793.78;5076341;28;20033;-64
2023/08/16 01:51:20;;;;;;;17.75;6.00;;;;;;;17.53;100.00;101789.44;5075801;28;20056;-66
2023/08/16 01:53:53;;;;;;;18.75;7.43;;;;;;;17.66;100.00;101790.16;5072049;28;20027;-65
2023/08/16 01:56:19;;;;;;;19.33;6.70;;;;;;;17.60;100.00;101787.56;5072522;28;20426;-66
2023/08/16 01:58:44;;;;;;;18.45;6.50;;;;;;;17.66;100.00;101792.84;5076092;28;20038;-64
2023/08/16 02:01:10;;;;;;;19.75;7.22;;;;;;;17.62;100.00;101796.47;5075915;28;20518;-64
2023/08/16 02:03:35;;;;;;;18.85;7.28;;;;;;;17.74;100.00;101799.00;5076001;28;20028;-64
2023/08/16 02:06:00;;;;;;;19.65;7.05;;;;;;;17.58;100.00;101802.75;5074596;28;20060;-64
2023/08/16 02:08:26;;;;;;;19.23;6.88;;;;;;;17.57;100.00;101793.81;5075775;28;20037;-64
2023/08/16 02:10:51;;;;;;;20.88;7.93;;;;;;;17.61;100.00;101797.38;5074528;28;20035;-64
2023/08/16 02:13:16;;;;;;;21.83;8.80;;;;;;;17.68;100.00;101795.50;5075687;28;20020;-65
2023/08/16 02:15:42;;;;;;;20.95;9.00;;;;;;;17.71;100.00;101795.50;5074378;28;20056;-65
2023/08/16 02:18:13;;;;;;;20.55;9.30;;;;;;;17.64;100.00;101799.13;5075668;28;20033;-64
2023/08/16 02:20:40;;;;;;;20.77;8.90;;;;;;;17.64;100.00;101800.00;5075593;28;20028;-64
2023/08/16 02:23:06;;;;;;;21.33;9.70;;;;;;;17.58;100.00;101800.06;5075394;28;20032;-64
2023/08/16 02:25:31;;;;;;;21.38;9.13;;;;;;;17.62;100.00;101793.81;5075548;28;20064;-64
2023/08/16 02:27:57;;;;;;;21.10;9.00;;;;;;;17.59;100.00;101804.50;5075238;28;20059;-64
2023/08/16 02:30:22;;;;;;;20.63;9.30;;;;;;;17.60;100.00;101803.59;5075273;28;20037;-63
2023/08/16 02:32:47;;;;;;;20.98;8.88;;;;;;;17.57;100.00;101799.16;5074254;28;20032;-64
2023/08/16 02:35:13;;;;;;;20.88;9.73;;;;;;;17.64;100.00;101799.13;5075197;28;20028;-64
2023/08/16 02:37:38;;;;;;;21.52;9.48;;;;;;;17.62;100.00;101801.81;5075424;28;20120;-64
2023/08/16 02:40:04;;;;;;;22.38;9.50;;;;;;;17.66;100.00;101805.34;5075453;28;20123;-64
2023/08/16 02:42:30;;;;;;;20.40;9.20;;;;;;;17.68;100.00;101795.50;5075119;28;20035;-64
2023/08/16 02:44:55;;;;;;;20.45;8.82;;;;;;;17.71;100.00;101799.03;5075330;28;20112;-63
2023/08/16 02:47:20;;;;;;;20.45;9.35;;;;;;;17.68;100.00;101796.41;5075073;28;20063;-64
2023/08/16 02:49:46;;;;;;;20.65;9.10;;;;;;;17.66;100.00;101787.50;5075147;28;20079;-64
2023/08/16 02:52:12;;;;;;;21.70;9.10;;;;;;;17.64;100.00;101778.63;5074237;28;20053;-64
2023/08/16 02:54:38;;;;;;;20.75;9.18;;;;;;;17.63;100.00;101782.19;5074966;28;20043;-64
2023/08/16 02:57:03;;;;;;;21.33;9.32;;;;;;;17.64;100.00;101785.75;5074927;28;20383;-64
2023/08/16 02:59:42;;;;;;;21.02;9.15;;;;;;;17.55;100.00;101789.41;5074971;28;20075;-64
2023/08/16 03:02:08;;;;;;;20.17;9.48;;;;;;;17.50;100.00;101785.88;5074994;28;20108;-64
2023/08/16 03:04:39;;;;;;;21.70;9.20;;;;;;;17.54;100.00;101784.97;5074698;28;20120;-64
2023/08/16 03:07:06;;;;;;;21.17;9.20;;;;;;;17.54;100.00;101782.28;5073473;28;20025;-64
2023/08/16 03:09:32;;;;;;;21.55;8.98;;;;;;;17.53;100.00;101789.44;5074845;28;20031;-64
2023/08/16 03:11:57;;;;;;;20.88;9.32;;;;;;;17.61;100.00;101794.69;5074438;28;20054;-64
2023/08/16 03:14:23;;;;;;;20.80;9.40;;;;;;;17.62;100.00;101791.13;5074525;28;20523;-64
2023/08/16 03:16:48;;;;;;;21.17;9.57;;;;;;;17.54;100.00;101791.19;5074638;28;20506;-64
2023/08/16 03:19:14;;;;;;;21.50;9.38;;;;;;;17.57;100.00;101791.16;5074402;28;20032;-63
2023/08/16 03:21:39;;;;;;;21.15;9.65;;;;;;;17.56;100.00;101799.19;5074596;28;20379;-64
2023/08/16 03:24:05;;;;;;;20.85;9.60;;;;;;;17.59;100.00;101791.13;5074300;28;20036;-64
2023/08/16 03:26:30;;;;;;;21.42;9.57;;;;;;;17.49;100.00;101795.69;5074196;28;20085;-64
2023/08/16 03:28:56;;;;;;;20.77;10.02;;;;;;;17.42;100.00;101792.19;5074601;28;20028;-64
2023/08/16 03:31:22;;;;;;;21.90;10.18;;;;;;;17.38;100.00;101786.88;5074155;28;20051;-64
2023/08/16 03:33:47;;;;;;;21.10;9.95;;;;;;;17.34;100.00;101791.38;5070267;28;20403;-64
2023/08/16 03:36:13;;;;;;;20.73;9.70;;;;;;;17.34;100.00;101796.69;5074339;28;20037;-63
2023/08/16 03:38:39;;;;;;;20.80;9.70;;;;;;;17.31;100.00;101794.06;5074037;28;20112;-64
2023/08/16 03:41:04;;;;;;;20.92;9.98;;;;;;;17.33;100.00;101792.28;5073994;28;20029;-64
2023/08/16 03:43:31;;;;;;;20.40;9.55;;;;;;;17.28;100.00;101795.91;5074127;28;20082;-64
2023/08/16 03:45:56;;;;;;;20.92;9.80;;;;;;;17.29;100.00;101803.91;5073951;28;20055;-63
2023/08/16 03:48:22;;;;;;;22.15;9.98;;;;;;;17.29;100.00;101806.56;5073936;28;20039;-64
2023/08/16 03:50:47;;;;;;;20.48;9.65;;;;;;;17.27;100.00;101802.13;5073666;28;20067;-64
2023/08/16 03:53:12;;;;;;;21.73;10.02;;;;;;;17.24;100.00;101803.03;5074079;28;20041;-64
2023/08/16 03:55:38;;;;;;;21.55;10.18;;;;;;;17.15;100.00;101800.44;5073678;28;20020;-65
2023/08/16 03:58:03;;;;;;;22.13;10.27;;;;;;;17.16;100.00;101807.56;5073896;28;20063;-64
2023/08/16 04:00:29;;;;;;;21.20;9.90;;;;;;;17.04;100.00;101813.91;5073662;28;20387;-64
2023/08/16 04:02:54;;;;;;;22.52;9.98;;;;;;;16.93;100.00;101824.63;5073621;28;20036;-64
2023/08/16 04:05:21;;;;;;;22.02;10.70;;;;;;;16.92;100.00;101822.88;5073559;28;20052;-64
2023/08/16 04:07:46;;;;;;;21.95;10.48;;;;;;;16.96;100.00;101813.06;5073701;28;20033;-64
2023/08/16 04:10:12;;;;;;;21.20;10.48;;;;;;;16.90;100.00;101820.19;5073892;28;20490;-65
2023/08/16 04:12:37;;;;;;;21.75;10.52;;;;;;;16.72;100.00;101822.97;5073406;28;20024;-65
2023/08/16 04:15:03;;;;;;;21.38;9.82;;;;;;;16.75;100.00;101822.94;5073342;28;20033;-63
2023/08/16 04:17:29;;;;;;;21.42;10.20;;;;;;;16.69;100.00;101823.84;5073504;28;20029;-64
2023/08/16 04:19:54;;;;;;;21.95;10.10;;;;;;;16.66;100.00;101834.56;5073202;28;20033;-64
2023/08/16 04:22:20;;;;;;;20.90;10.45;;;;;;;16.64;100.00;101822.97;5073264;28;20374;-64
2023/08/16 04:24:46;;;;;;;21.33;10.38;;;;;;;16.54;100.00;101832.84;5073294;28;20021;-67
2023/08/16 04:27:11;;;;;;;21.20;10.38;;;;;;;16.57;100.00;101831.91;5073048;28;20528;-65
2023/08/16 04:29:36;;;;;;;21.15;10.23;;;;;;;16.69;100.00;101823.84;5073086;28;20031;-67
2023/08/16 04:32:02;;;;;;;20.90;10.10;;;;;;;16.68;100.00;101827.41;5073121;28;20040;-66
2023/08/16 04:34:28;;;;;;;21.88;10.48;;;;;;;16.74;100.00;101832.72;5073027;28;20028;-67
2023/08/16 04:36:53;;;;;;;22.45;10.73;;;;;;;16.71;100.00;101832.72;5073032;28;20032;-66
2023/08/16 04:39:19;;;;;;;21.58;10.52;;;;;;;16.69;100.00;101829.19;5073121;28;20494;-67
2023/08/16 04:41:44;;;;;;;21.63;10.48;;;;;;;16.71;100.00;101826.53;5073218;28;20032;-67
2023/08/16 04:44:09;;;;;;;24.10;10.65;;;;;;;16.71;100.00;101822.06;5073420;28;20479;-66
2023/08/16 04:46:35;;;;;;;21.20;10.20;;;;;;;16.76;100.00;101823.81;5073125;28;20134;-67
2023/08/16 04:49:00;;;;;;;21.77;10.70;;;;;;;16.74;100.00;101823.81;5072949;28;20392;-66
2023/08/16 04:51:26;;;;;;;22.73;10.40;;;;;;;16.86;100.00;101828.19;5072853;28;20058;-67
2023/08/16 04:53:52;;;;;;;21.58;10.18;;;;;;;16.91;100.00;101823.78;5072838;28;20471;-66
2023/08/16 04:56:17;;;;;;;21.08;9.90;;;;;;;16.95;100.00;101822.84;5073071;28;20123;-66
2023/08/16 04:58:42;;;;;;;21.40;10.18;;;;;;;16.93;100.00;101821.97;5072888;28;20067;-67
2023/08/16 05:01:09;;;;;;;20.75;10.15;;;;;;;16.94;100.00;101830.88;5072791;28;20035;-67
2023/08/16 05:03:34;;;;;;;20.75;10.50;;;;;;;16.91;100.00;101834.44;5072613;28;20129;-67
2023/08/16 05:06:02;;;;;;;24.17;10.43;;;;;;;16.91;100.00;101842.47;5072882;28;20028;-67
2023/08/16 05:08:28;;;;;;;21.08;10.57;;;;;;;16.91;100.00;101845.13;5072646;28;20029;-64
2023/08/16 05:10:53;;;;;;;21.95;10.77;;;;;;;16.87;100.00;101835.31;5072484;28;20475;-64
2023/08/16 05:13:19;;;;;;;22.50;10.32;;;;;;;16.89;100.00;101836.22;5072259;28;20056;-65
2023/08/16 05:15:45;;;;;;;20.85;10.32;;;;;;;16.84;100.00;101838.03;5072537;28;20440;-64
2023/08/16 05:18:11;;;;;;;20.08;9.57;;;;;;;16.73;100.00;101841.63;5072577;28;20361;-65
2023/08/16 05:20:37;;;;;;;20.88;10.02;;;;;;;16.67;100.00;101844.34;5071477;28;20052;-64
2023/08/16 05:23:03;;;;;;;20.77;10.18;;;;;;;16.66;100.00;101845.22;5071278;28;20059;-64
2023/08/16 05:25:28;;;;;;;21.70;10.20;;;;;;;16.77;100.00;101854.97;5072360;28;20082;-64
2023/08/16 05:27:58;;;;;;;21.27;9.77;;;;;;;16.84;100.00;101852.25;5071331;28;20037;-65
2023/08/16 05:30:27;;;;;;;20.85;9.73;;;;;;;16.82;100.00;101858.47;5072351;28;20041;-63
2023/08/16 05:32:55;;;;;;;21.67;10.35;;;;;;;16.91;100.00;101861.16;5071298;28;20029;-66
2023/08/16 05:35:21;;;;;;;22.98;10.25;;;;;;;16.92;100.00;101862.94;5069146;28;20064;-64
2023/08/16 05:37:48;;;;;;;22.30;10.52;;;;;;;16.92;100.00;101857.59;5072326;28;20432;-65
2023/08/16 05:40:14;;;;;;;20.92;10.02;;;;;;;16.96;100.00;101859.31;5072250;28;20043;-64
2023/08/16 05:42:39;;;;;;;21.60;9.90;;;;;;;17.04;100.00;101857.50;5071645;28;20032;-64
2023/08/16 05:45:05;;;;;;;22.50;10.40;;;;;;;17.16;100.00;101861.00;5072062;28;20040;-63
2023/08/16 05:47:31;;;;;;;20.55;9.68;;;;;;;17.19;100.00;101861.84;5072041;28;20028;-64
2023/08/16 05:50:00;;;;;;;21.50;9.48;;;;;;;17.33;100.00;101860.84;5069281;28;20374;-64
2023/08/16 05:52:26;;;;;;;21.42;9.48;;;;;;;17.30;100.00;101861.78;5066101;28;20099;-65
2023/08/16 05:54:51;;;;;;;21.05;9.25;;;;;;;17.34;100.00;101866.19;5069098;28;20108;-64
2023/08/16 05:57:17;;;;;;;21.70;9.38;;;;;;;17.31;100.00;101868.88;5067115;28;20111;-64
2023/08/16 05:59:42;;;;;;;21.05;9.30;;;;;;;17.38;100.00;101877.75;5070375;28;20024;-64
2023/08/16 06:02:07;;;;;;;20.42;9.18;;;;;;;17.42;100.00;101882.19;5065782;28;20543;-64
2023/08/16 06:04:36;;;;;;;20.30;9.00;;;;;;;17.47;100.00;101888.34;5071821;28;20028;-65
2023/08/16 06:07:03;;;;;;;20.38;8.85;;;;;;;17.57;100.00;101883.84;5072222;28;20422;-64
2023/08/16 06:09:30;;;;;;;20.77;9.70;;;;;;;17.58;100.00;101881.16;5071987;28;20025;-64
2023/08/16 06:11:55;;;;;;;20.23;9.15;;;;;;;17.64;100.00;101880.22;5072007;28;20036;-63
2023/08/16 06:14:20;;;;;;;19.98;9.05;;;;;;;17.74;100.00;101876.56;5072015;28;20036;-64
2023/08/16 06:16:46;;;;;;;20.70;9.27;;;;;;;17.85;100.00;101867.53;5070246;28;20021;-63
2023/08/16 06:19:13;;;;;;;19.30;8.65;;;;;;;17.92;100.00;101863.94;5072117;28;20032;-64
2023/08/16 06:21:39;;;;;;;21.75;8.45;;;;;;;17.97;100.00;101867.47;5071960;28;20035;-64
2023/08/16 06:24:05;;;;;;;19.83;8.40;;;;;;;18.05;100.00;101868.25;5071704;28;20024;-64
2023/08/16 06:26:30;;;;;;;20.90;8.45;;;;;;;17.97;100.00;101872.81;5073674;28;20024;-64
2023/08/16 06:28:55;;;;;;;19.33;8.40;;;;;;;17.91;100.00;101875.53;5074837;28;20058;-64
2023/08/16 06:31:21;;;;;;;19.40;8.23;;;;;;;17.86;100.00;101869.31;5075286;28;20036;-64
2023/08/16 06:33:46;;;;;;;19.98;8.07;;;;;;;17.85;100.00;101867.53;5075156;28;20157;-64
2023/08/16 06:36:12;;;;;;;19.30;8.23;;;;;;;17.91;100.00;101871.09;5075369;28;20059;-67
2023/08/16 06:38:38;;;;;;;19.67;8.05;;;;;;;18.00;100.00;101874.56;5075292;28;20108;-67
2023/08/16 06:41:03;;;;;;;19.23;7.57;;;;;;;18.11;100.00;101876.25;5073286;28;20094;-65
2023/08/16 06:43:29;;;;;;;18.80;7.60;;;;;;;18.16;100.00;101880.63;5075000;28;20028;-66
2023/08/16 06:45:56;;;;;;;18.95;8.00;;;;;;;18.22;100.00;101877.91;5073908;28;20043;-66
2023/08/16 06:48:21;;;;;;;21.58;8.35;;;;;;;18.18;100.00;101876.16;5074837;28;20056;-66
2023/08/16 06:50:46;;;;;;;20.00;8.18;;;;;;;18.24;100.00;101874.28;5074617;28;20192;-67
2023/08/16 06:53:12;;;;;;;19.50;7.95;;;;;;;18.31;100.00;101883.16;5065303;28;20040;-66
2023/08/16 06:55:37;;;;;;;19.40;7.95;;;;;;;18.39;100.00;101881.28;5068840;28;20445;-65
2023/08/16 06:58:05;;;;;;;18.83;7.22;;;;;;;18.46;100.00;101877.63;5074884;28;20082;-65
2023/08/16 07:00:31;;;;;;;19.52;7.43;;;;;;;18.53;100.00;101888.25;5075207;28;20029;-65
2023/08/16 07:02:57;;;;;;;19.40;7.50;;;;;;;18.65;100.00;101893.44;5074654;28;20032;-67
2023/08/16 07:05:25;;;;;;;18.50;7.38;;;;;;;18.83;100.00;101900.38;5074151;28;20036;-66
2023/08/16 07:07:50;;;;;;;19.10;7.22;;;;;;;19.02;100.00;101897.44;5073899;28;20537;-67
2023/08/16 07:10:16;;;;;;;17.90;6.72;;;;;;;19.32;100.00;101896.09;5073901;28;20108;-67
2023/08/16 07:12:43;;;;;;;19.30;7.32;;;;;;;19.54;100.00;101895.75;5073532;28;20486;-67
2023/08/16 07:15:09;;;;;;;19.60;7.03;;;;;;;19.67;100.00;101898.22;5074197;28;20020;-67
2023/08/16 07:17:34;;;;;;;20.35;6.88;;;;;;;19.77;100.00;101896.25;5073925;28;20486;-67
2023/08/16 07:19:59;;;;;;;17.35;6.35;;;;;;;19.74;100.00;101882.03;5074159;28;20028;-66
2023/08/16 07:22:27;;;;;;;19.25;6.82;;;;;;;19.66;100.00;101876.81;5074282;28;20487;-65
2023/08/16 07:24:52;;;;;;;18.55;6.38;;;;;;;19.65;100.00;101883.06;5067210;28;20115;-65
2023/08/16 07:27:17;;;;;;;17.80;6.20;;;;;;;19.64;100.00;101886.66;5074186;28;20420;-65
2023/08/16 07:29:43;;;;;;;21.35;6.40;;;;;;;19.67;100.00;101900.00;5073893;28;20020;-64
2023/08/16 07:32:08;;;;;;;17.08;6.22;;;;;;;19.71;100.00;101899.03;5073815;28;20040;-65
2023/08/16 07:34:34;;;;;;;19.48;8.10;;;;;;;19.78;100.00;101903.44;5073038;28;20032;-64
2023/08/16 07:36:59;;;;;;;19.75;6.47;;;;;;;19.80;100.00;101893.53;5073756;28;20029;-64
2023/08/16 07:39:25;;;;;;;19.40;6.28;;;;;;;19.87;100.00;101893.47;5069943;28;20536;-64
2023/08/16 07:41:51;;;;;;;17.58;6.40;;;;;;;19.88;100.00;101895.22;5074232;28;20115;-64
2023/08/16 07:44:16;;;;;;;18.27;6.30;;;;;;;19.93;100.00;101890.66;5073949;28;20519;-66
2023/08/16 07:46:42;;;;;;;19.42;6.25;;;;;;;20.03;100.00;101898.50;5073985;28;20025;-66
2023/08/16 07:49:07;;;;;;;17.70;6.00;;;;;;;20.16;100.00;101895.59;5074178;28;20063;-67
2023/08/16 07:51:32;;;;;;;17.85;5.43;;;;;;;20.35;100.00;101904.19;5073718;28;20403;-66
2023/08/16 07:53:58;;;;;;;18.08;5.82;;;;;;;20.65;100.00;101920.56;5073859;28;20036;-66
2023/08/16 07:56:23;;;;;;;18.13;5.60;;;;;;;20.90;100.00;101916.47;5073859;28;20020;-66
2023/08/16 07:58:48;;;;;;;17.08;5.57;;;;;;;21.12;100.00;101909.75;5073696;28;20031;-66
2023/08/16 08:01:14;;;;;;;16.05;4.70;;;;;;;21.30;100.00;101908.44;5073861;28;20029;-66
2023/08/16 08:03:39;;;;;;;12.88;4.10;;;;;;;21.33;100.00;101913.72;5073613;28;20523;-66
2023/08/16 08:06:04;;;;;;;14.85;3.97;;;;;;;21.30;100.00;101903.06;5073542;28;20418;-66
2023/08/16 08:08:31;;;;;;;13.80;4.00;;;;;;;21.32;100.00;101912.84;5074015;28;20033;-66
2023/08/16 08:10:56;;;;;;;11.52;3.80;;;;;;;21.35;100.00;101919.97;5073380;28;20036;-66
2023/08/16 08:13:21;;;;;;;13.95;4.13;;;;;;;21.33;100.00;101924.50;5072915;28;20025;-66
2023/08/16 08:15:47;;;;;;;16.88;3.88;;;;;;;21.34;100.00;101924.44;5073486;28;20032;-66
2023/08/16 08:18:12;;;;;;;15.43;4.00;;;;;;;21.41;100.00;101925.19;5073356;28;20021;-66
2023/08/16 08:20:38;;;;;;;13.48;3.58;;;;;;;21.64;100.00;101923.78;5071282;28;20025;-67
2023/08/16 08:23:03;;;;;;;14.95;3.97;;;;;;;21.95;100.00;101926.56;5074235;28;20031;-67
2023/08/16 08:25:30;;;;;;;14.25;3.55;;;;;;;22.28;100.00;101923.91;5070191;28;20047;-67
2023/08/16 08:27:55;;;;;;;10.02;3.15;;;;;;;22.81;100.00;101928.69;5072170;28;20122;-67
2023/08/16 08:30:21;;;;;;;12.77;3.50;;;;;;;23.32;100.00;101928.03;5073312;28;20074;-67
2023/08/16 08:32:46;;;;;;;15.00;3.40;;;;;;;23.57;100.00;101927.22;5072802;28;20025;-67
2023/08/16 08:35:12;;;;;;;15.20;3.40;;;;;;;23.76;100.00;101926.63;5072896;28;20021;-66
2023/08/16 08:37:37;;;;;;;15.27;3.60;;;;;;;23.94;100.00;101920.63;5069122;28;20036;-67
2023/08/16 08:40:04;;;;;;;14.40;3.63;;;;;;;24.47;100.00;101924.16;5070546;28;20021;-67
2023/08/16 08:42:31;;;;;;;12.00;3.75;;;;;;;25.07;100.00;101940.81;5072815;28;20090;-67
2023/08/16 08:44:58;;;;;;;16.13;3.72;;;;;;;25.49;100.00;101941.91;5072806;28;20031;-68
2023/08/16 08:47:24;;;;;;;13.18;3.38;;;;;;;25.58;100.00;101941.50;5072521;28;20483;-68
2023/08/16 08:49:50;;;;;;;12.82;3.05;;;;;;;25.29;100.00;101938.13;5072422;28;20039;-68
2023/08/16 08:52:18;;;;;;;11.55;3.28;;;;;;;25.00;100.00;101936.59;5072209;28;20084;-68
2023/08/16 08:54:44;;;;;;;12.90;3.90;;;;;;;24.62;100.00;101934.41;5072471;28;20391;-68
2023/08/16 08:57:10;;;;;;;14.65;3.70;;;;;;;24.35;100.00;101942.56;5072873;28;20033;-68
2023/08/16 08:59:38;;;;;;;10.23;3.25;;;;;;;24.19;100.00;101950.34;5072375;28;20021;-68
2023/08/16 09:02:05;;;;;;;14.25;3.70;;;;;;;24.13;100.00;101945.16;5072587;28;20036;-68
2023/08/16 09:04:33;;;;;;;12.65;3.20;;;;;;;24.23;100.00;101943.00;5072560;28;20410;-68
2023/08/16 09:07:03;;;;;;;10.80;3.55;;;;;;;24.34;100.00;101946.19;5072672;28;20039;-68
2023/08/16 09:09:29;;;;;;;15.85;3.47;;;;;;;24.32;100.00;101940.00;5072665;28;20028;-68
2023/08/16 09:11:54;;;;;;;13.48;3.70;;;;;;;24.37;100.00;101934.41;5072509;28;20556;-67
2023/08/16 09:14:19;;;;;;;14.07;3.80;;;;;;;24.32;100.00;101937.28;5073061;28;20500;-67
2023/08/16 09:16:45;;;;;;;15.30;3.75;;;;;;;24.41;100.00;101937.91;5072468;28;20365;-68
2023/08/16 09:19:14;;;;;;;14.88;3.90;;;;;;;24.42;100.00;101947.75;5072771;28;20070;-68
2023/08/16 09:21:42;;;;;;;14.10;4.00;;;;;;;24.71;100.00;101949.41;5069178;28;20081;-68
2023/08/16 09:24:07;;;;;;;13.60;3.80;;;;;;;25.06;100.00;101947.16;5068349;28;20024;-68
2023/08/16 09:26:32;;;;;;;12.25;3.75;;;;;;;25.09;100.00;101954.28;5072682;28;20353;-68
2023/08/16 09:28:59;;;;;;;10.80;3.60;;;;;;;24.90;100.00;101954.97;5072764;28;20027;-66
2023/08/16 09:31:27;;;;;;;13.75;3.90;;;;;;;24.88;100.00;101946.06;5072295;28;20031;-65
2023/08/16 09:33:54;;;;;;;15.82;4.30;;;;;;;24.85;100.00;101946.19;5072601;28;20025;-64
2023/08/16 09:36:20;;;;;;;15.52;4.30;;;;;;;24.93;100.00;101946.78;5072545;28;20028;-65
2023/08/16 09:38:46;;;;;;;13.77;4.10;;;;;;;25.32;100.00;101947.97;5072414;28;20116;-65
2023/08/16 09:41:14;;;;;;;13.38;4.22;;;;;;;25.77;100.00;101952.44;5072557;28;20052;-65
2023/08/16 09:43:39;;;;;;;13.85;4.10;;;;;;;26.32;100.00;101943.78;5072472;28;20060;-65
2023/08/16 09:46:05;;;;;;;13.75;3.75;;;;;;;26.74;100.00;101945.50;5072269;28;20062;-65
2023/08/16 09:48:31;;;;;;;15.10;4.13;;;;;;;26.91;99.93;101947.44;5072529;28;20037;-65
2023/08/16 09:51:04;;;;;;;14.02;4.03;;;;;;;26.92;100.00;101942.88;5072170;28;20475;-65
2023/08/16 09:53:32;;;;;;;13.82;3.95;;;;;;;26.99;90.75;101955.19;5072224;28;20040;-65
2023/08/16 09:56:01;;;;;;;12.90;3.80;;;;;;;27.50;89.28;101952.78;5070878;28;20025;-65
2023/08/16 09:58:27;;;;;;;13.50;3.80;;;;;;;27.89;82.88;101945.38;5072350;28;20372;-66
2023/08/16 10:00:55;;;;;;;11.98;3.65;;;;;;;27.96;78.72;101949.53;5074672;28;20032;-65
2023/08/16 10:03:21;;;;;;;15.35;3.92;;;;;;;27.89;79.65;101945.38;5075895;28;20025;-65
2023/08/16 10:05:46;;;;;;;15.60;4.30;;;;;;;27.56;81.28;101949.75;5076022;28;20479;-65
2023/08/16 10:08:12;;;;;;;14.73;4.18;;;;;;;27.11;88.13;101938.31;5076023;28;20027;-65
2023/08/16 10:10:39;;;;;;;12.52;4.10;;;;;;;26.62;89.04;101938.78;5075748;28;20024;-65
2023/08/16 10:13:07;;;;;;;12.48;4.00;;;;;;;26.45;100.00;101930.56;5075824;28;20036;-65
2023/08/16 10:15:33;;;;;;;15.98;4.78;;;;;;;26.53;100.00;101930.19;5075934;28;20037;-65
2023/08/16 10:18:00;;;;;;;16.15;4.40;;;;;;;26.24;97.89;101924.25;5075571;28;20024;-65
2023/08/16 10:20:32;;;;;;;13.45;4.10;;;;;;;25.95;100.00;101929.13;5075747;28;20024;-65
2023/08/16 10:23:02;;;;;;;17.00;4.45;;;;;;;25.64;100.00;101926.84;5075533;28;20031;-65
2023/08/16 10:25:50;;;;;;;13.73;4.03;;;;;;;25.38;100.00;101929.69;5075342;28;20032;-65
2023/08/16 10:28:18;;;;;;;13.75;3.90;;;;;;;25.42;100.00;101935.84;5072162;28;20514;-65
2023/08/16 10:30:46;;;;;;;16.15;4.70;;;;;;;25.40;100.00;101935.91;5075356;28;20036;-65
2023/08/16 10:33:21;;;;;;;16.98;4.90;;;;;;;25.51;100.00;101934.59;5075555;28;20039;-65
2023/08/16 10:35:50;;;;;;;16.38;4.85;;;;;;;25.71;100.00;101940.03;5071466;28;20025;-65
2023/08/16 10:38:16;;;;;;;17.42;5.18;;;;;;;26.15;100.00;101932.81;5075096;28;20028;-65
2023/08/16 10:40:41;;;;;;;17.92;5.13;;;;;;;26.52;100.00;101933.84;5075222;28;20136;-66
2023/08/16 10:43:08;;;;;;;17.30;5.20;;;;;;;26.89;100.00;101934.88;5075409;28;20028;-65
2023/08/16 10:45:34;;;;;;;15.80;4.88;;;;;;;27.11;95.72;101935.59;5074806;28;20033;-66
2023/08/16 10:48:18;;;;;;;15.07;4.82;;;;;;;27.38;100.00;101928.94;5075118;28;20107;-65
2023/08/16 10:50:50;;;;;;;15.82;4.70;;;;;;;27.74;87.11;101922.63;5072585;28;20036;-65
2023/08/16 10:53:17;;;;;;;15.45;4.45;;;;;;;27.83;83.21;101922.16;5074995;28;20032;-65
2023/08/16 10:55:50;;;;;;;17.13;4.47;;;;;;;27.85;82.55;101922.06;5074909;28;20033;-68
2023/08/16 10:58:21;;;;;;;14.95;4.40;;;;;;;28.51;80.88;101930.34;5074899;28;20025;-68
2023/08/16 11:00:59;;;;;;;16.88;4.65;;;;;;;28.42;75.57;101922.69;5075045;28;20032;-68
2023/08/16 11:03:32;;;;;;;16.00;4.90;;;;;;;27.78;78.82;101929.66;5075035;28;20162;-67
2023/08/16 11:06:00;;;;;;;17.42;4.72;;;;;;;27.45;81.49;101928.56;5074780;28;20077;-68